Twin Rock, Colorado
Current Conditions -  °F | °C
As of 7:54 PM on Friday 19 Dec 2014 (Local Time) from K4BM Reporting Station
Clear Clear  
Wind Chill:   Ceiling: Unl
Heat Index: 21°   Visibility: 10mi
Dew Point:   Wind: 15mph
Humidity: 58%   Direction: 310°NW
Pressure: 30.09"   Gusts: 28mph
Location:  38.8466°N, 105.301°W
Report Text: K4BM 200254Z AUTO 31013G24KT 10SM CLR M06/M13 A3009 RMK AO2
Loading
Personal Weather Stations






























Interactive Weather Map New forecast layout! Learn more

10-Day Weather Forecast

Advertisements
Track Severe Weather on mobile